Belford, United Kingdom
Current Conditions -  °F | °C
As of 10:50 PM on Wednesday 22 Oct 2014 (Local Time) from EGQM Reporting Station
Overcast Overcast  
Wind Chill: 54°   Ceiling: 14000
Heat Index: 54°   Visibility: 6mi
Dew Point: 48°   Wind: 23mph
Humidity: 82%   Direction: 240°WSW
Pressure: 29.94"   Gusts: 36mph
Location:  55.59°N, 1.82°W
Report Text: EGQM 222150Z AUTO 24020G31KT 9999 OVC140/// 12/09 Q1014
Loading
Personal Weather Stations






























Interactive Weather Map
Tropical Storm Tracking
New forecast layout! Learn more

10-Day Weather Forecast

Advertisements
Track Severe Weather on mobile